USCGC Polar Star — NBTM — position and weather

sailwx.info

Track history (hours):
 
Tides and Currents Weather Stations Pressure Air Temp Water Temp Dewpoint Dewpoint Depression Visibility Wind Speed Wind Dir Waves Ship Positions

Oceanographic research ship USCGC Polar Star (USA)

Detailed information on ship capabilities available from University of Delaware's Ocean Information Center and ARCUS's ALIAS (Arctic Logistics Information and Support) project.

Last reported at 2016-Mar-29 23:33 UTC. Time now 2016-Aug-28 20:34 UTC.
Position N 47°35' W 122°21'.
Warning: this ship's position is months out of date.

Type: Military. MMSI: 367255000.

Date/timePositionNaut miles runAvg speedWind from/ knotsBaromVisibWave heightAir tempDewpointWater temp
2016-Mar-29 23:33N 47°35' W 122°21'7 7.0
2016-Mar-29 22:33N 47°40' W 122°29'1818.3
2016-Mar-29 21:33N 47°58' W 122°35'1915.9
2016-Mar-29 20:22N 48°11' W 122°54'1518.2
2016-Mar-29 19:33N 48°12' W 123°17'1817.5
2016-Mar-29 18:33N 48°13' W 123°43'5413.5
2016-Mar-29 14:33N 48°21' W 125°03'8 8.4
2016-Mar-29 13:33N 48°13' W 124°60'4819.4
2016-Mar-29 11:05N 47°26' W 124°41'1019.8
2016-Mar-29 10:34N 47°16' W 124°38'2019.7
2016-Mar-29 09:33N 46°57' W 124°30'2019.8
2016-Mar-29 08:34N 46°38' W 124°25'1919.5
2016-Mar-29 07:34N 46°19' W 124°19'1919.3
2016-Mar-29 06:34N 45°60' W 124°16'1919.0
2016-Mar-29 05:33N 45°41' W 124°15'1918.7
2016-Mar-29 04:33N 45°22' W 124°17'39616.4
2016-Mar-28 04:27N 38°47' W 123°47'1617.7
2016-Mar-28 03:33N 38°31' W 123°44'1818.2
2016-Mar-28 02:33N 38°13' W 123°41'1313.1
2016-Mar-28 01:33N 38°01' W 123°36'10 9.8
2016-Mar-28 00:33N 37°52' W 123°30'10 9.8
2016-Mar-27 23:33N 37°43' W 123°24'1414.3
2016-Mar-27 22:33N 37°31' W 123°15'1918.6
2016-Mar-27 21:33N 37°15' W 123°04'1918.7
2016-Mar-27 20:33N 36°58' W 122°53'1919.2
2016-Mar-27 19:33N 36°42' W 122°41'1918.8
2016-Mar-27 18:33N 36°25' W 122°30'1918.8
2016-Mar-27 17:33N 36°09' W 122°18'1918.9
2016-Mar-27 16:33N 35°53' W 122°05'1918.9
2016-Mar-27 15:33N 35°38' W 121°51'18216.2
2016-Mar-27 04:21N 33°37' W 119°06'1315.3
2016-Mar-27 03:31N 33°35' W 118°51'1111.9
2016-Mar-27 02:33N 33°33' W 118°38'6 6.4
2016-Mar-27 01:33N 33°33' W 118°30'9 9.0
2016-Mar-27 00:33N 33°31' W 118°20'6 5.8
2016-Mar-26 23:33N 33°26' W 118°17'5 5.3
2016-Mar-26 22:33N 33°21' W 118°15'10 9.7
2016-Mar-26 21:33N 33°14' W 118°06'1615.5
2016-Mar-26 20:33N 33°05' W 117°52'1515.4
2016-Mar-26 19:33N 32°55' W 117°37'1313.5
2016-Mar-26 18:34N 32°46' W 117°25'1212.3
2016-Mar-26 17:34N 32°38' W 117°14'6 5.5
2016-Mar-26 16:31N 32°43' W 117°11'0 0.0
2016-Mar-26 15:25N 32°43' W 117°10'  
2016-Mar-20 17:29N 32°43' W 117°11'0 0.2
2016-Mar-20 16:18N 32°43' W 117°11'0 0.1
2016-Mar-20 12:30N 32°43' W 117°11'  
Track history (hours):
 
Tides and Currents Weather Stations Pressure Air Temp Water Temp Dewpoint Dewpoint Depression Visibility Wind Speed Wind Dir Waves Ship Positions

Oceanographic research ship USCGC Polar Star (USA)

Detailed information on ship capabilities available from University of Delaware's Ocean Information Center and ARCUS's ALIAS (Arctic Logistics Information and Support) project.

Last reported at 2016-Mar-29 23:33 UTC. Time now 2016-Aug-28 20:34 UTC.
Position N 47°35' W 122°21'.
Warning: this ship's position is months out of date.

Type: Military. MMSI: 367255000.

Date/timePositionNaut miles runAvg speedWind from/ knotsBaromVisibWave heightAir tempDewpointWater temp
2016-Mar-29 23:33N 47°35' W 122°21'7 7.0
2016-Mar-29 22:33N 47°40' W 122°29'1818.3
2016-Mar-29 21:33N 47°58' W 122°35'1915.9
2016-Mar-29 20:22N 48°11' W 122°54'1518.2
2016-Mar-29 19:33N 48°12' W 123°17'1817.5
2016-Mar-29 18:33N 48°13' W 123°43'5413.5
2016-Mar-29 14:33N 48°21' W 125°03'8 8.4
2016-Mar-29 13:33N 48°13' W 124°60'4819.4
2016-Mar-29 11:05N 47°26' W 124°41'1019.8
2016-Mar-29 10:34N 47°16' W 124°38'2019.7
2016-Mar-29 09:33N 46°57' W 124°30'2019.8
2016-Mar-29 08:34N 46°38' W 124°25'1919.5
2016-Mar-29 07:34N 46°19' W 124°19'1919.3
2016-Mar-29 06:34N 45°60' W 124°16'1919.0
2016-Mar-29 05:33N 45°41' W 124°15'1918.7
2016-Mar-29 04:33N 45°22' W 124°17'39616.4
2016-Mar-28 04:27N 38°47' W 123°47'1617.7
2016-Mar-28 03:33N 38°31' W 123°44'1818.2
2016-Mar-28 02:33N 38°13' W 123°41'1313.1
2016-Mar-28 01:33N 38°01' W 123°36'10 9.8
2016-Mar-28 00:33N 37°52' W 123°30'10 9.8
2016-Mar-27 23:33N 37°43' W 123°24'1414.3
2016-Mar-27 22:33N 37°31' W 123°15'1918.6
2016-Mar-27 21:33N 37°15' W 123°04'1918.7
2016-Mar-27 20:33N 36°58' W 122°53'1919.2
2016-Mar-27 19:33N 36°42' W 122°41'1918.8
2016-Mar-27 18:33N 36°25' W 122°30'1918.8
2016-Mar-27 17:33N 36°09' W 122°18'1918.9
2016-Mar-27 16:33N 35°53' W 122°05'1918.9
2016-Mar-27 15:33N 35°38' W 121°51'18216.2
2016-Mar-27 04:21N 33°37' W 119°06'1315.3
2016-Mar-27 03:31N 33°35' W 118°51'1111.9
2016-Mar-27 02:33N 33°33' W 118°38'6 6.4
2016-Mar-27 01:33N 33°33' W 118°30'9 9.0
2016-Mar-27 00:33N 33°31' W 118°20'6 5.8
2016-Mar-26 23:33N 33°26' W 118°17'5 5.3
2016-Mar-26 22:33N 33°21' W 118°15'10 9.7
2016-Mar-26 21:33N 33°14' W 118°06'1615.5
2016-Mar-26 20:33N 33°05' W 117°52'1515.4
2016-Mar-26 19:33N 32°55' W 117°37'1313.5
2016-Mar-26 18:34N 32°46' W 117°25'1212.3
2016-Mar-26 17:34N 32°38' W 117°14'6 5.5
2016-Mar-26 16:31N 32°43' W 117°11'0 0.0
2016-Mar-26 15:25N 32°43' W 117°10'  
2016-Mar-20 17:29N 32°43' W 117°11'0 0.2
2016-Mar-20 16:18N 32°43' W 117°11'0 0.1
2016-Mar-20 12:30N 32°43' W 117°11'  

Dump ship's entire track history